This is the latest recevied weather packets stored in our database for station/object HK4RAU-16. If no packets are shown the sender has not sent any weather packets the latest 1 day(s).
| Time | Temp. | Humidity | Pressure | Rain* | Wind** | Luminosity | Snow |
|---|---|---|---|---|---|---|---|
| 1778161910 | 23.89° C | 79% | 1016 hPa | 0 mm | - | - | - |
| 1778161604 | 24.44° C | 80% | 1016 hPa | 0 mm | - | - | - |
| 1778160676 | 18.89° C | 10% | - | 0 mm | - | - | - |
| 1778160369 | 19.44° C | 10% | - | 0 mm | - | - | - |
| 1778160057 | 18.89° C | 10% | - | 0 mm | - | - | - |
| 1778159138 | 16.67° C | 93% | 1016 hPa | 0 mm | - | - | - |
| 1778158530 | 16.67° C | 91% | 1016 hPa | 0 mm | - | - | - |
| 1778155152 | 17.22° C | 98% | 1016 hPa | 0 mm | - | - | - |
| 1778154536 | 18.33° C | 98% | 1016 hPa | 0 mm | - | - | - |
| 1778154224 | 18.89° C | 98% | 1016 hPa | 0 mm | - | - | - |
| 1778153616 | 15.56° C | 98% | 1016 hPa | 0 mm | - | - | - |
| 1778152998 | 16.67° C | 98% | 1017 hPa | 0 mm | - | - | - |
| 1778152690 | 17.22° C | 98% | 1017 hPa | 0 mm | - | - | - |
| 1778152387 | 17.22° C | 98% | 1017 hPa | 0 mm | - | - | - |
| 1778151772 | 18.33° C | 98% | 1017 hPa | 0 mm | - | - | - |
| 1778150243 | 14.44° C | 98% | 1017 hPa | 0 mm | - | - | - |
| 1778149632 | 15° C | 98% | 1016 hPa | 0 mm | - | - | - |
| 1778148413 | 16.67° C | 98% | 1016 hPa | 0 mm | - | - | - |
| 1778147494 | 17.78° C | 98% | 1016 hPa | 0 mm | - | - | - |
| 1778146885 | 18.33° C | 98% | 1016 hPa | 0 mm | - | - | - |
| 1778146578 | 18.89° C | 98% | 1016 hPa | 0 mm | - | - | - |
| 1778146272 | 13.89° C | 97% | 1016 hPa | 0 mm | - | - | - |
| 1778145659 | 14.44° C | 97% | 1016 hPa | 0 mm | - | - | - |
| 1778145347 | 15° C | 97% | 1016 hPa | 0 mm | - | - | - |
| 1778144739 | 15.56° C | 97% | 1016 hPa | 0 mm | - | - | - |
* Rain latest hour (hover to see other rain measurements)
** Current wind speed in m/s (hover to see current wind gust speed)